Butteville, Oregon
Current Conditions -  °F | °C
As of 5:53 PM on Saturday 22 Nov 2014 (Local Time) from KUAO Reporting Station
Scattered Clouds Scattered Clouds  
Wind Chill: 47°   Ceiling: Unl
Heat Index: 47°   Visibility: 10mi
Dew Point: 42°   Wind: 3mph
Humidity: 83%   Direction: 250°WSW
Pressure: 30.13"   Gusts: NA
Location:  45.2365°N, 122.797°W
Report Text: KUAO 230153Z AUTO 25003KT 10SM SCT070 08/06 A3013 RMK AO2 SLP203 T00830056
Loading
Personal Weather Stations






























Interactive Weather Map New forecast layout! Learn more

10-Day Weather Forecast

Advertisements
Track Severe Weather on mobile